sensor_id;sensor_type;location;lat;lon;timestamp;P1;durP1;ratioP1;P2;durP2;ratioP2
30010;SDS011;16851;53.564;8.112;2024-01-30T00:03:23;27.87;;;19.33;;
30010;SDS011;16851;53.564;8.112;2024-01-30T00:08:29;30.33;;;21.53;;
30010;SDS011;16851;53.564;8.112;2024-01-30T00:13:33;32.83;;;22.60;;
30010;SDS011;16851;53.564;8.112;2024-01-30T00:18:35;30.23;;;20.67;;
30010;SDS011;16851;53.564;8.112;2024-01-30T00:23:37;30.87;;;23.10;;
30010;SDS011;16851;53.564;8.112;2024-01-30T00:28:42;30.57;;;22.20;;
30010;SDS011;16851;53.564;8.112;2024-01-30T00:33:43;31.20;;;21.77;;
30010;SDS011;16851;53.564;8.112;2024-01-30T00:38:45;29.43;;;20.47;;
30010;SDS011;16851;53.564;8.112;2024-01-30T00:43:50;28.27;;;20.90;;
30010;SDS011;16851;53.564;8.112;2024-01-30T00:48:54;28.73;;;20.20;;
30010;SDS011;16851;53.564;8.112;2024-01-30T00:53:55;30.83;;;22.37;;
30010;SDS011;16851;53.564;8.112;2024-01-30T00:58:57;30.60;;;21.80;;
30010;SDS011;16851;53.564;8.112;2024-01-30T01:04:01;27.67;;;21.40;;
30010;SDS011;16851;53.564;8.112;2024-01-30T01:09:03;31.33;;;22.13;;
30010;SDS011;16851;53.564;8.112;2024-01-30T01:14:13;27.57;;;21.40;;
30010;SDS011;16851;53.564;8.112;2024-01-30T01:19:15;31.00;;;21.80;;
30010;SDS011;16851;53.564;8.112;2024-01-30T01:24:17;29.13;;;20.57;;
30010;SDS011;16851;53.564;8.112;2024-01-30T01:29:21;27.90;;;21.60;;
30010;SDS011;16851;53.564;8.112;2024-01-30T01:34:32;28.67;;;20.87;;
30010;SDS011;16851;53.564;8.112;2024-01-30T01:39:36;29.30;;;21.90;;
30010;SDS011;16851;53.564;8.112;2024-01-30T01:44:38;31.13;;;22.60;;
30010;SDS011;16851;53.564;8.112;2024-01-30T01:49:42;29.70;;;21.53;;
30010;SDS011;16851;53.564;8.112;2024-01-30T01:54:44;35.73;;;22.63;;
30010;SDS011;16851;53.564;8.112;2024-01-30T01:59:48;29.73;;;21.40;;
30010;SDS011;16851;53.564;8.112;2024-01-30T02:04:52;27.97;;;20.17;;
30010;SDS011;16851;53.564;8.112;2024-01-30T02:09:55;29.83;;;21.63;;
30010;SDS011;16851;53.564;8.112;2024-01-30T02:14:59;30.03;;;22.07;;
30010;SDS011;16851;53.564;8.112;2024-01-30T02:20:02;31.83;;;22.00;;
30010;SDS011;16851;53.564;8.112;2024-01-30T02:25:05;30.27;;;22.67;;
30010;SDS011;16851;53.564;8.112;2024-01-30T02:30:09;31.23;;;22.00;;
30010;SDS011;16851;53.564;8.112;2024-01-30T02:35:13;29.60;;;22.10;;
30010;SDS011;16851;53.564;8.112;2024-01-30T02:40:17;29.10;;;21.90;;
30010;SDS011;16851;53.564;8.112;2024-01-30T02:45:22;33.33;;;22.43;;
30010;SDS011;16851;53.564;8.112;2024-01-30T02:50:26;30.17;;;21.97;;
30010;SDS011;16851;53.564;8.112;2024-01-30T02:55:28;32.47;;;24.07;;
30010;SDS011;16851;53.564;8.112;2024-01-30T03:00:32;31.30;;;23.07;;
30010;SDS011;16851;53.564;8.112;2024-01-30T03:05:34;33.63;;;23.13;;
30010;SDS011;16851;53.564;8.112;2024-01-30T03:10:35;28.10;;;22.80;;
30010;SDS011;16851;53.564;8.112;2024-01-30T03:15:40;32.93;;;24.97;;
30010;SDS011;16851;53.564;8.112;2024-01-30T03:20:42;33.40;;;23.80;;
30010;SDS011;16851;53.564;8.112;2024-01-30T03:25:44;34.10;;;25.27;;
30010;SDS011;16851;53.564;8.112;2024-01-30T03:30:48;34.30;;;26.83;;
30010;SDS011;16851;53.564;8.112;2024-01-30T03:35:49;32.17;;;24.07;;
30010;SDS011;16851;53.564;8.112;2024-01-30T03:40:53;36.90;;;25.77;;
30010;SDS011;16851;53.564;8.112;2024-01-30T03:45:55;36.90;;;26.07;;
30010;SDS011;16851;53.564;8.112;2024-01-30T03:50:57;33.83;;;26.63;;
30010;SDS011;16851;53.564;8.112;2024-01-30T03:56:02;33.93;;;24.73;;
30010;SDS011;16851;53.564;8.112;2024-01-30T04:01:05;38.63;;;28.93;;
30010;SDS011;16851;53.564;8.112;2024-01-30T04:06:09;42.20;;;28.10;;
30010;SDS011;16851;53.564;8.112;2024-01-30T04:11:18;43.93;;;30.73;;
30010;SDS011;16851;53.564;8.112;2024-01-30T04:16:21;38.13;;;29.40;;
30010;SDS011;16851;53.564;8.112;2024-01-30T04:21:24;40.73;;;31.37;;
30010;SDS011;16851;53.564;8.112;2024-01-30T04:26:26;39.07;;;29.80;;
30010;SDS011;16851;53.564;8.112;2024-01-30T04:31:27;43.40;;;29.57;;
30010;SDS011;16851;53.564;8.112;2024-01-30T04:36:32;39.47;;;29.20;;
30010;SDS011;16851;53.564;8.112;2024-01-30T04:41:36;36.63;;;28.70;;
30010;SDS011;16851;53.564;8.112;2024-01-30T04:46:38;42.17;;;30.37;;
30010;SDS011;16851;53.564;8.112;2024-01-30T04:51:42;42.33;;;30.07;;
30010;SDS011;16851;53.564;8.112;2024-01-30T04:56:46;39.53;;;28.90;;
30010;SDS011;16851;53.564;8.112;2024-01-30T05:01:48;41.00;;;28.23;;
30010;SDS011;16851;53.564;8.112;2024-01-30T05:06:52;38.90;;;29.53;;
30010;SDS011;16851;53.564;8.112;2024-01-30T05:11:56;42.97;;;30.87;;
30010;SDS011;16851;53.564;8.112;2024-01-30T05:16:58;42.37;;;29.97;;
30010;SDS011;16851;53.564;8.112;2024-01-30T05:22:00;39.33;;;28.93;;
30010;SDS011;16851;53.564;8.112;2024-01-30T05:27:02;40.13;;;28.70;;
30010;SDS011;16851;53.564;8.112;2024-01-30T05:32:04;40.60;;;27.93;;
30010;SDS011;16851;53.564;8.112;2024-01-30T05:37:09;38.27;;;29.00;;
30010;SDS011;16851;53.564;8.112;2024-01-30T05:42:10;42.80;;;29.13;;
30010;SDS011;16851;53.564;8.112;2024-01-30T05:47:13;41.97;;;30.57;;
30010;SDS011;16851;53.564;8.112;2024-01-30T05:52:17;41.17;;;30.73;;
30010;SDS011;16851;53.564;8.112;2024-01-30T05:57:22;39.17;;;30.27;;
30010;SDS011;16851;53.564;8.112;2024-01-30T06:02:24;37.57;;;27.80;;
30010;SDS011;16851;53.564;8.112;2024-01-30T06:07:25;34.13;;;27.07;;
30010;SDS011;16851;53.564;8.112;2024-01-30T06:12:35;37.50;;;27.20;;
30010;SDS011;16851;53.564;8.112;2024-01-30T06:17:41;37.07;;;27.13;;
30010;SDS011;16851;53.564;8.112;2024-01-30T06:22:45;34.67;;;26.77;;
30010;SDS011;16851;53.564;8.112;2024-01-30T06:27:47;38.80;;;27.37;;
30010;SDS011;16851;53.564;8.112;2024-01-30T06:32:51;34.53;;;26.73;;
30010;SDS011;16851;53.564;8.112;2024-01-30T06:37:55;31.67;;;25.47;;
30010;SDS011;16851;53.564;8.112;2024-01-30T06:43:00;34.50;;;25.90;;
30010;SDS011;16851;53.564;8.112;2024-01-30T06:48:02;31.53;;;26.07;;
30010;SDS011;16851;53.564;8.112;2024-01-30T06:53:04;39.77;;;25.90;;
30010;SDS011;16851;53.564;8.112;2024-01-30T06:58:05;35.53;;;25.20;;
30010;SDS011;16851;53.564;8.112;2024-01-30T07:03:10;32.60;;;24.20;;
30010;SDS011;16851;53.564;8.112;2024-01-30T07:08:11;33.77;;;24.90;;
30010;SDS011;16851;53.564;8.112;2024-01-30T07:13:13;34.20;;;25.40;;
30010;SDS011;16851;53.564;8.112;2024-01-30T07:18:18;38.60;;;25.47;;
30010;SDS011;16851;53.564;8.112;2024-01-30T07:23:22;35.97;;;24.03;;
30010;SDS011;16851;53.564;8.112;2024-01-30T07:28:24;32.57;;;23.90;;
30010;SDS011;16851;53.564;8.112;2024-01-30T07:33:26;32.33;;;24.07;;
30010;SDS011;16851;53.564;8.112;2024-01-30T07:38:34;32.47;;;27.10;;
30010;SDS011;16851;53.564;8.112;2024-01-30T07:43:36;28.07;;;22.87;;
30010;SDS011;16851;53.564;8.112;2024-01-30T07:48:39;28.57;;;23.13;;
30010;SDS011;16851;53.564;8.112;2024-01-30T07:53:41;29.43;;;23.63;;
30010;SDS011;16851;53.564;8.112;2024-01-30T07:58:43;30.53;;;22.43;;
30010;SDS011;16851;53.564;8.112;2024-01-30T08:03:47;32.53;;;22.53;;
30010;SDS011;16851;53.564;8.112;2024-01-30T08:08:49;28.63;;;21.30;;
30010;SDS011;16851;53.564;8.112;2024-01-30T08:13:52;29.53;;;20.83;;
30010;SDS011;16851;53.564;8.112;2024-01-30T08:18:54;26.57;;;19.67;;
30010;SDS011;16851;53.564;8.112;2024-01-30T08:24:05;26.23;;;20.23;;
30010;SDS011;16851;53.564;8.112;2024-01-30T08:29:09;29.23;;;19.70;;
30010;SDS011;16851;53.564;8.112;2024-01-30T08:34:16;24.43;;;18.70;;
30010;SDS011;16851;53.564;8.112;2024-01-30T08:39:18;24.63;;;17.33;;
30010;SDS011;16851;53.564;8.112;2024-01-30T08:44:22;21.33;;;17.23;;
30010;SDS011;16851;53.564;8.112;2024-01-30T08:49:26;26.10;;;18.13;;
30010;SDS011;16851;53.564;8.112;2024-01-30T08:54:31;24.33;;;16.73;;
30010;SDS011;16851;53.564;8.112;2024-01-30T08:59:38;23.53;;;17.57;;
30010;SDS011;16851;53.564;8.112;2024-01-30T09:04:42;22.83;;;17.13;;
30010;SDS011;16851;53.564;8.112;2024-01-30T09:09:44;28.50;;;16.80;;
30010;SDS011;16851;53.564;8.112;2024-01-30T09:14:51;27.77;;;17.60;;
30010;SDS011;16851;53.564;8.112;2024-01-30T09:19:53;23.67;;;17.77;;
30010;SDS011;16851;53.564;8.112;2024-01-30T09:24:55;25.27;;;17.27;;
30010;SDS011;16851;53.564;8.112;2024-01-30T09:29:57;22.73;;;17.33;;
30010;SDS011;16851;53.564;8.112;2024-01-30T09:34:59;21.83;;;17.07;;
30010;SDS011;16851;53.564;8.112;2024-01-30T09:40:04;26.93;;;16.27;;
30010;SDS011;16851;53.564;8.112;2024-01-30T09:45:06;23.87;;;16.53;;
30010;SDS011;16851;53.564;8.112;2024-01-30T09:50:11;21.10;;;16.00;;
30010;SDS011;16851;53.564;8.112;2024-01-30T09:55:16;22.10;;;14.50;;
30010;SDS011;16851;53.564;8.112;2024-01-30T10:00:18;24.13;;;16.43;;
30010;SDS011;16851;53.564;8.112;2024-01-30T10:05:20;20.37;;;15.50;;
30010;SDS011;16851;53.564;8.112;2024-01-30T10:10:35;26.03;;;16.03;;
30010;SDS011;16851;53.564;8.112;2024-01-30T10:15:37;20.47;;;14.83;;
30010;SDS011;16851;53.564;8.112;2024-01-30T10:20:42;23.13;;;15.93;;
30010;SDS011;16851;53.564;8.112;2024-01-30T10:25:44;21.00;;;14.30;;
30010;SDS011;16851;53.564;8.112;2024-01-30T10:30:57;24.53;;;15.33;;
30010;SDS011;16851;53.564;8.112;2024-01-30T10:36:05;19.83;;;14.90;;
30010;SDS011;16851;53.564;8.112;2024-01-30T10:41:09;18.07;;;13.67;;
30010;SDS011;16851;53.564;8.112;2024-01-30T10:46:18;23.93;;;15.43;;
30010;SDS011;16851;53.564;8.112;2024-01-30T10:51:26;21.43;;;14.97;;
30010;SDS011;16851;53.564;8.112;2024-01-30T10:56:30;22.50;;;14.17;;
30010;SDS011;16851;53.564;8.112;2024-01-30T11:01:34;20.70;;;13.70;;
30010;SDS011;16851;53.564;8.112;2024-01-30T11:06:45;21.00;;;13.97;;
30010;SDS011;16851;53.564;8.112;2024-01-30T11:11:57;18.10;;;13.93;;
30010;SDS011;16851;53.564;8.112;2024-01-30T11:17:05;19.33;;;13.70;;
30010;SDS011;16851;53.564;8.112;2024-01-30T11:22:13;20.27;;;13.47;;
30010;SDS011;16851;53.564;8.112;2024-01-30T11:27:15;20.73;;;13.97;;
30010;SDS011;16851;53.564;8.112;2024-01-30T11:32:24;25.30;;;13.93;;
30010;SDS011;16851;53.564;8.112;2024-01-30T11:37:26;18.87;;;12.43;;
30010;SDS011;16851;53.564;8.112;2024-01-30T11:42:32;26.57;;;13.10;;
30010;SDS011;16851;53.564;8.112;2024-01-30T11:47:35;18.80;;;12.60;;
30010;SDS011;16851;53.564;8.112;2024-01-30T11:52:42;23.37;;;12.77;;
30010;SDS011;16851;53.564;8.112;2024-01-30T11:57:46;16.73;;;12.57;;
30010;SDS011;16851;53.564;8.112;2024-01-30T12:02:51;18.70;;;12.60;;
30010;SDS011;16851;53.564;8.112;2024-01-30T12:07:57;23.63;;;12.93;;
30010;SDS011;16851;53.564;8.112;2024-01-30T12:13:05;20.75;;;12.40;;
30010;SDS011;16851;53.564;8.112;2024-01-30T12:18:07;21.53;;;13.10;;
30010;SDS011;16851;53.564;8.112;2024-01-30T12:23:12;19.50;;;12.80;;
30010;SDS011;16851;53.564;8.112;2024-01-30T12:28:14;21.67;;;13.50;;
30010;SDS011;16851;53.564;8.112;2024-01-30T12:33:17;23.73;;;13.15;;
30010;SDS011;16851;53.564;8.112;2024-01-30T12:38:24;19.10;;;12.20;;
30010;SDS011;16851;53.564;8.112;2024-01-30T12:43:26;19.33;;;12.57;;
30010;SDS011;16851;53.564;8.112;2024-01-30T12:48:39;19.98;;;13.45;;
30010;SDS011;16851;53.564;8.112;2024-01-30T12:53:41;20.58;;;11.75;;
30010;SDS011;16851;53.564;8.112;2024-01-30T12:58:45;20.27;;;13.93;;
30010;SDS011;16851;53.564;8.112;2024-01-30T13:03:52;19.97;;;14.23;;
30010;SDS011;16851;53.564;8.112;2024-01-30T13:08:54;21.73;;;13.32;;
30010;SDS011;16851;53.564;8.112;2024-01-30T13:14:01;32.28;;;13.18;;
30010;SDS011;16851;53.564;8.112;2024-01-30T13:19:03;17.93;;;12.77;;
30010;SDS011;16851;53.564;8.112;2024-01-30T13:24:10;20.37;;;13.13;;
30010;SDS011;16851;53.564;8.112;2024-01-30T13:29:14;21.48;;;13.38;;
30010;SDS011;16851;53.564;8.112;2024-01-30T13:34:15;19.00;;;13.10;;
30010;SDS011;16851;53.564;8.112;2024-01-30T13:39:17;22.43;;;13.37;;
30010;SDS011;16851;53.564;8.112;2024-01-30T13:44:33;18.45;;;13.15;;
30010;SDS011;16851;53.564;8.112;2024-01-30T13:49:36;22.33;;;13.68;;
30010;SDS011;16851;53.564;8.112;2024-01-30T13:54:38;23.33;;;14.27;;
30010;SDS011;16851;53.564;8.112;2024-01-30T13:59:40;17.90;;;13.37;;
30010;SDS011;16851;53.564;8.112;2024-01-30T14:04:42;19.57;;;13.80;;
30010;SDS011;16851;53.564;8.112;2024-01-30T14:09:47;20.48;;;13.50;;
30010;SDS011;16851;53.564;8.112;2024-01-30T14:14:52;20.60;;;14.88;;
30010;SDS011;16851;53.564;8.112;2024-01-30T14:19:56;25.17;;;14.30;;
30010;SDS011;16851;53.564;8.112;2024-01-30T14:25:00;21.98;;;11.68;;
30010;SDS011;16851;53.564;8.112;2024-01-30T14:30:05;17.03;;;9.03;;
30010;SDS011;16851;53.564;8.112;2024-01-30T14:35:07;13.77;;;8.10;;
30010;SDS011;16851;53.564;8.112;2024-01-30T14:40:10;17.30;;;6.93;;
30010;SDS011;16851;53.564;8.112;2024-01-30T14:45:15;14.70;;;7.13;;
30010;SDS011;16851;53.564;8.112;2024-01-30T14:50:19;16.33;;;7.90;;
30010;SDS011;16851;53.564;8.112;2024-01-30T14:55:27;15.93;;;6.70;;
30010;SDS011;16851;53.564;8.112;2024-01-30T15:00:28;15.57;;;6.50;;
30010;SDS011;16851;53.564;8.112;2024-01-30T15:05:33;18.30;;;7.00;;
30010;SDS011;16851;53.564;8.112;2024-01-30T15:10:37;12.67;;;5.73;;
30010;SDS011;16851;53.564;8.112;2024-01-30T15:15:42;8.77;;;4.03;;
30010;SDS011;16851;53.564;8.112;2024-01-30T15:20:46;5.97;;;3.03;;
30010;SDS011;16851;53.564;8.112;2024-01-30T15:25:48;3.83;;;2.10;;
30010;SDS011;16851;53.564;8.112;2024-01-30T15:30:52;3.37;;;1.40;;
30010;SDS011;16851;53.564;8.112;2024-01-30T15:35:57;1.83;;;1.07;;
30010;SDS011;16851;53.564;8.112;2024-01-30T15:41:00;2.60;;;0.90;;
30010;SDS011;16851;53.564;8.112;2024-01-30T15:46:02;2.60;;;1.20;;
30010;SDS011;16851;53.564;8.112;2024-01-30T15:51:04;2.67;;;1.20;;
30010;SDS011;16851;53.564;8.112;2024-01-30T15:56:06;2.33;;;1.20;;
30010;SDS011;16851;53.564;8.112;2024-01-30T16:01:07;2.97;;;1.57;;
30010;SDS011;16851;53.564;8.112;2024-01-30T16:06:09;3.07;;;1.37;;
30010;SDS011;16851;53.564;8.112;2024-01-30T16:11:16;2.47;;;1.00;;
30010;SDS011;16851;53.564;8.112;2024-01-30T16:16:18;4.83;;;1.40;;
30010;SDS011;16851;53.564;8.112;2024-01-30T16:21:26;2.67;;;1.63;;
30010;SDS011;16851;53.564;8.112;2024-01-30T16:26:28;3.40;;;1.40;;
30010;SDS011;16851;53.564;8.112;2024-01-30T16:31:30;4.43;;;1.50;;
30010;SDS011;16851;53.564;8.112;2024-01-30T16:36:32;2.70;;;1.50;;
30010;SDS011;16851;53.564;8.112;2024-01-30T16:41:34;4.60;;;2.20;;
30010;SDS011;16851;53.564;8.112;2024-01-30T16:46:37;3.13;;;2.40;;
30010;SDS011;16851;53.564;8.112;2024-01-30T16:51:41;3.70;;;2.50;;
30010;SDS011;16851;53.564;8.112;2024-01-30T16:56:43;7.50;;;3.37;;
30010;SDS011;16851;53.564;8.112;2024-01-30T17:01:49;5.90;;;3.00;;
30010;SDS011;16851;53.564;8.112;2024-01-30T17:06:51;5.53;;;2.93;;
30010;SDS011;16851;53.564;8.112;2024-01-30T17:11:54;4.00;;;2.90;;
30010;SDS011;16851;53.564;8.112;2024-01-30T17:16:55;7.97;;;3.20;;
30010;SDS011;16851;53.564;8.112;2024-01-30T17:22:07;5.37;;;4.40;;
30010;SDS011;16851;53.564;8.112;2024-01-30T17:27:15;7.23;;;4.77;;
30010;SDS011;16851;53.564;8.112;2024-01-30T17:32:19;3.67;;;2.67;;
30010;SDS011;16851;53.564;8.112;2024-01-30T17:37:23;8.33;;;4.70;;
30010;SDS011;16851;53.564;8.112;2024-01-30T17:42:25;9.20;;;5.53;;
30010;SDS011;16851;53.564;8.112;2024-01-30T17:47:29;8.57;;;6.20;;
30010;SDS011;16851;53.564;8.112;2024-01-30T17:52:31;7.40;;;6.10;;
30010;SDS011;16851;53.564;8.112;2024-01-30T17:57:36;8.47;;;7.20;;
30010;SDS011;16851;53.564;8.112;2024-01-30T18:02:38;9.13;;;7.27;;
30010;SDS011;16851;53.564;8.112;2024-01-30T18:07:41;8.85;;;7.95;;
30010;SDS011;16851;53.564;8.112;2024-01-30T18:12:45;9.77;;;7.40;;
30010;SDS011;16851;53.564;8.112;2024-01-30T18:17:51;9.70;;;7.23;;
30010;SDS011;16851;53.564;8.112;2024-01-30T18:22:53;10.33;;;9.07;;
30010;SDS011;16851;53.564;8.112;2024-01-30T18:27:55;11.33;;;9.10;;
30010;SDS011;16851;53.564;8.112;2024-01-30T18:32:57;12.13;;;8.63;;
30010;SDS011;16851;53.564;8.112;2024-01-30T18:38:02;8.90;;;7.30;;
30010;SDS011;16851;53.564;8.112;2024-01-30T18:43:05;6.60;;;5.60;;
30010;SDS011;16851;53.564;8.112;2024-01-30T18:48:09;6.33;;;4.80;;
30010;SDS011;16851;53.564;8.112;2024-01-30T18:53:14;8.40;;;4.43;;
30010;SDS011;16851;53.564;8.112;2024-01-30T18:58:18;7.37;;;4.80;;
30010;SDS011;16851;53.564;8.112;2024-01-30T19:03:20;8.40;;;5.97;;
30010;SDS011;16851;53.564;8.112;2024-01-30T19:08:24;9.40;;;5.10;;
30010;SDS011;16851;53.564;8.112;2024-01-30T19:13:27;11.70;;;5.50;;
30010;SDS011;16851;53.564;8.112;2024-01-30T19:18:31;8.97;;;4.50;;
30010;SDS011;16851;53.564;8.112;2024-01-30T19:23:33;7.10;;;3.50;;
30010;SDS011;16851;53.564;8.112;2024-01-30T19:28:40;9.10;;;3.87;;
30010;SDS011;16851;53.564;8.112;2024-01-30T19:33:43;10.67;;;4.50;;
30010;SDS011;16851;53.564;8.112;2024-01-30T19:38:47;10.47;;;4.50;;
30010;SDS011;16851;53.564;8.112;2024-01-30T19:43:49;17.20;;;5.53;;
30010;SDS011;16851;53.564;8.112;2024-01-30T19:48:51;14.70;;;4.97;;
30010;SDS011;16851;53.564;8.112;2024-01-30T19:53:55;14.23;;;4.35;;
30010;SDS011;16851;53.564;8.112;2024-01-30T19:58:57;12.60;;;4.77;;
30010;SDS011;16851;53.564;8.112;2024-01-30T20:04:04;14.70;;;3.50;;
30010;SDS011;16851;53.564;8.112;2024-01-30T20:09:07;14.57;;;3.20;;
30010;SDS011;16851;53.564;8.112;2024-01-30T20:14:12;13.77;;;3.73;;
30010;SDS011;16851;53.564;8.112;2024-01-30T20:19:16;18.53;;;3.87;;
30010;SDS011;16851;53.564;8.112;2024-01-30T20:24:18;14.87;;;3.63;;
30010;SDS011;16851;53.564;8.112;2024-01-30T20:29:22;18.00;;;3.67;;
30010;SDS011;16851;53.564;8.112;2024-01-30T20:34:24;22.83;;;3.40;;
30010;SDS011;16851;53.564;8.112;2024-01-30T20:39:30;13.33;;;2.80;;
30010;SDS011;16851;53.564;8.112;2024-01-30T20:44:37;13.23;;;2.73;;
30010;SDS011;16851;53.564;8.112;2024-01-30T20:49:41;17.20;;;3.23;;
30010;SDS011;16851;53.564;8.112;2024-01-30T20:54:46;19.57;;;4.00;;
30010;SDS011;16851;53.564;8.112;2024-01-30T20:59:50;19.37;;;3.70;;
30010;SDS011;16851;53.564;8.112;2024-01-30T21:04:55;23.70;;;3.80;;
30010;SDS011;16851;53.564;8.112;2024-01-30T21:09:59;22.37;;;3.77;;
30010;SDS011;16851;53.564;8.112;2024-01-30T21:15:01;35.28;;;5.80;;
30010;SDS011;16851;53.564;8.112;2024-01-30T21:20:07;35.80;;;5.37;;
30010;SDS011;16851;53.564;8.112;2024-01-30T21:25:10;28.40;;;4.77;;
30010;SDS011;16851;53.564;8.112;2024-01-30T21:30:12;36.40;;;5.03;;
30010;SDS011;16851;53.564;8.112;2024-01-30T21:35:22;27.90;;;4.43;;
30010;SDS011;16851;53.564;8.112;2024-01-30T21:40:26;30.00;;;5.03;;
30010;SDS011;16851;53.564;8.112;2024-01-30T21:45:28;32.07;;;4.43;;
30010;SDS011;16851;53.564;8.112;2024-01-30T21:50:32;21.07;;;3.33;;
30010;SDS011;16851;53.564;8.112;2024-01-30T21:55:37;18.07;;;2.33;;
30010;SDS011;16851;53.564;8.112;2024-01-30T22:00:39;29.20;;;4.37;;
30010;SDS011;16851;53.564;8.112;2024-01-30T22:05:43;19.83;;;3.03;;
30010;SDS011;16851;53.564;8.112;2024-01-30T22:10:45;16.13;;;2.07;;
30010;SDS011;16851;53.564;8.112;2024-01-30T22:15:50;18.40;;;2.50;;
30010;SDS011;16851;53.564;8.112;2024-01-30T22:20:51;18.57;;;2.63;;
30010;SDS011;16851;53.564;8.112;2024-01-30T22:25:56;14.70;;;2.00;;
30010;SDS011;16851;53.564;8.112;2024-01-30T22:30:59;9.73;;;1.40;;
30010;SDS011;16851;53.564;8.112;2024-01-30T22:36:03;14.83;;;2.27;;
30010;SDS011;16851;53.564;8.112;2024-01-30T22:41:06;11.23;;;1.60;;
30010;SDS011;16851;53.564;8.112;2024-01-30T22:46:11;5.77;;;1.33;;
30010;SDS011;16851;53.564;8.112;2024-01-30T22:51:15;7.37;;;1.50;;
30010;SDS011;16851;53.564;8.112;2024-01-30T22:56:21;8.90;;;1.60;;
30010;SDS011;16851;53.564;8.112;2024-01-30T23:01:23;5.47;;;1.53;;
30010;SDS011;16851;53.564;8.112;2024-01-30T23:06:25;11.30;;;1.70;;
30010;SDS011;16851;53.564;8.112;2024-01-30T23:11:29;13.93;;;2.03;;
30010;SDS011;16851;53.564;8.112;2024-01-30T23:16:33;14.03;;;2.10;;
30010;SDS011;16851;53.564;8.112;2024-01-30T23:21:35;12.03;;;2.30;;
30010;SDS011;16851;53.564;8.112;2024-01-30T23:26:40;11.47;;;1.97;;
30010;SDS011;16851;53.564;8.112;2024-01-30T23:31:45;12.07;;;2.13;;
30010;SDS011;16851;53.564;8.112;2024-01-30T23:36:50;13.20;;;1.93;;
30010;SDS011;16851;53.564;8.112;2024-01-30T23:41:54;12.93;;;1.83;;
30010;SDS011;16851;53.564;8.112;2024-01-30T23:46:55;14.83;;;1.93;;
30010;SDS011;16851;53.564;8.112;2024-01-30T23:51:57;13.23;;;2.40;;
30010;SDS011;16851;53.564;8.112;2024-01-30T23:57:02;17.67;;;2.27;;
